MiSS Sarah — WDE9595 — position and weather

sailwx.info

Track history (hours):
 
Tides and Currents Weather Stations Pressure Air Temp Water Temp Dewpoint Dewpoint Depression Visibility Wind Speed Wind Dir Waves Ship Positions

MiSS Sarah

Owner: Higman Barge Lines, Inc, Orange, TX. More information available from US FCC via Universal Licensing System and Coast Guard Vessel Documentation Center.

Last reported at 2018-Jun-15 05:49 UTC. Time now 2018-Jun-19 20:00 UTC.
Position N 29°46' W 095°06'.

Length 22 m; draft 2.7 m.

Type: . MMSI: 367419040.

Date/timePositionNaut miles runAvg speedWind from/ knotsBaromVisibWave heightAir tempDewpointWater temp
2018-Jun-15 05:49N 29°46' W 095°06'0 0.0
2018-Jun-15 05:14N 29°46' W 095°06'0 0.0
2018-Jun-15 05:00N 29°46' W 095°06'2 0.1
2018-Jun-14 08:13N 29°45' W 095°07'1 2.3
2018-Jun-14 07:50N 29°45' W 095°06'3 5.4
2018-Jun-14 07:22N 29°47' W 095°04'0 0.0
2018-Jun-14 06:59N 29°47' W 095°04'0 0.0
2018-Jun-14 06:30N 29°47' W 095°04'2 0.9
2018-Jun-14 03:53N 29°45' W 095°06'2 5.6
2018-Jun-14 03:27N 29°44' W 095°08'0 0.0
2018-Jun-14 02:58N 29°44' W 095°08'0 0.1
2018-Jun-14 01:57N 29°44' W 095°08'0 0.0
2018-Jun-14 01:27N 29°44' W 095°08'0 0.0
2018-Jun-14 00:49N 29°44' W 095°08'0 0.0
2018-Jun-13 06:26N 29°44' W 095°08'0 0.0
2018-Jun-13 05:40N 29°44' W 095°08'0 0.0
2018-Jun-13 05:29N 29°44' W 095°08'0 0.1
2018-Jun-13 04:53N 29°44' W 095°08'0 0.1
2018-Jun-13 04:30N 29°44' W 095°08'0 0.0
2018-Jun-13 03:59N 29°44' W 095°08'0 0.0
2018-Jun-13 03:28N 29°44' W 095°08'0 0.0
2018-Jun-13 02:42N 29°44' W 095°08'0 0.0
2018-Jun-13 02:19N 29°44' W 095°08'0 0.0
2018-Jun-13 01:54N 29°44' W 095°08'0 0.0
2018-Jun-12 11:17N 29°44' W 095°08'0 0.9
2018-Jun-12 10:49N 29°44' W 095°08'7 2.8
2018-Jun-12 08:28N 29°42' W 095°01'4 6.8
2018-Jun-12 07:57N 29°39' W 094°58'3 7.2
2018-Jun-12 07:30N 29°36' W 094°57'25 3.9
2018-Jun-12 01:03N 29°32' W 094°29'0 0.4
2018-Jun-12 01:00N 29°32' W 094°29'0 0.0
2018-Jun-12 00:26N 29°32' W 094°29'0 0.2
2018-Jun-11 23:58N 29°32' W 094°29'1 2.0
2018-Jun-11 23:19N 29°33' W 094°28'2 4.7
2018-Jun-11 22:56N 29°34' W 094°26'2 3.9
2018-Jun-11 22:27N 29°35' W 094°25'2 4.2
2018-Jun-11 21:58N 29°36' W 094°23'1 1.6
2018-Jun-11 21:29N 29°36' W 094°22'2 4.5
2018-Jun-11 21:00N 29°37' W 094°20'2 4.6
2018-Jun-11 20:31N 29°38' W 094°17'2 4.7
2018-Jun-11 20:00N 29°40' W 094°15'2 4.7
2018-Jun-11 19:31N 29°41' W 094°13'2 4.5
2018-Jun-11 19:00N 29°41' W 094°10'2 4.5
2018-Jun-11 18:30N 29°42' W 094°08'2 4.6
2018-Jun-11 18:00N 29°44' W 094°06'2 4.7
2018-Jun-11 17:30N 29°45' W 094°04'2 4.7
2018-Jun-11 17:01N 29°47' W 094°02'2 4.7
2018-Jun-11 16:30N 29°49' W 093°60'1 2.7
2018-Jun-11 16:00N 29°49' W 093°58'2 4.7
2018-Jun-11 15:30N 29°51' W 093°57'3 5.6
2018-Jun-11 15:01N 29°53' W 093°55'3 6.0
2018-Jun-11 14:31N 29°56' W 093°53'1 2.9
2018-Jun-11 14:01N 29°57' W 093°52'2 3.8
2018-Jun-11 13:30N 29°58' W 093°51'2 3.0
2018-Jun-11 13:01N 29°59' W 093°49'3 6.0
2018-Jun-11 12:29N 30°01' W 093°46'3 5.3
2018-Jun-11 12:00N 30°03' W 093°44'2 4.9
2018-Jun-11 11:30N 30°04' W 093°41'2 5.0
2018-Jun-11 11:01N 30°04' W 093°39'2 4.6
2018-Jun-11 10:30N 30°04' W 093°36'2 4.7
2018-Jun-11 10:00N 30°04' W 093°33'2 4.6
2018-Jun-11 09:30N 30°04' W 093°30'2 4.1
2018-Jun-11 09:01N 30°04' W 093°28'3 5.0
2018-Jun-11 08:30N 30°04' W 093°25'2 5.0
2018-Jun-11 08:00N 30°04' W 093°22'2 3.2
2018-Jun-11 07:30N 30°04' W 093°21'1 2.9
2018-Jun-11 07:00N 30°05' W 093°20'1 2.7
2018-Jun-11 06:31N 30°06' W 093°18'1 1.3
2018-Jun-11 06:00N 30°05' W 093°17'1 1.5
2018-Jun-11 05:30N 30°05' W 093°17'0 0.5
2018-Jun-11 05:00N 30°05' W 093°17'0 0.0
2018-Jun-11 04:30N 30°05' W 093°17'0 0.0
2018-Jun-11 04:00N 30°05' W 093°17'0 0.0
2018-Jun-11 03:30N 30°05' W 093°17'0 0.0
2018-Jun-11 03:00N 30°05' W 093°17'0 0.0
2018-Jun-11 02:29N 30°05' W 093°17'0 0.0
2018-Jun-11 02:00N 30°05' W 093°17'0 0.5
2018-Jun-11 01:30N 30°04' W 093°16'1 1.2
2018-Jun-11 01:00N 30°04' W 093°16'1 1.6
2018-Jun-11 00:30N 30°03' W 093°16'0 0.5
2018-Jun-11 00:00N 30°03' W 093°16'1 2.1
2018-Jun-10 23:30N 30°02' W 093°15'1 1.6
2018-Jun-10 23:00N 30°02' W 093°14'0 0.0
2018-Jun-10 22:30N 30°02' W 093°14'0 0.0
2018-Jun-10 22:01N 30°02' W 093°14'0 0.0
2018-Jun-10 21:30N 30°02' W 093°14'0 0.0
2018-Jun-10 21:01N 30°02' W 093°14'0 0.0
2018-Jun-10 20:31N 30°02' W 093°14'0 0.1
2018-Jun-10 20:00N 30°02' W 093°14'0 0.1
2018-Jun-10 19:30N 30°02' W 093°14'0 0.0
2018-Jun-10 19:00N 30°02' W 093°14'0 0.0
2018-Jun-10 18:26N 30°02' W 093°14'0 0.0
2018-Jun-10 18:00N 30°02' W 093°14'0 0.1
2018-Jun-10 17:30N 30°02' W 093°14'1 1.6
2018-Jun-10 17:00N 30°01' W 093°14'2 3.7
2018-Jun-10 16:30N 29°59' W 093°13'1 1.3
2018-Jun-10 16:01N 29°59' W 093°12'2 3.3
2018-Jun-10 15:30N 29°58' W 093°11'2 4.2
2018-Jun-10 14:59N 29°56' W 093°09'2 3.8
2018-Jun-10 14:30N 29°56' W 093°07'35 4.1
2018-Jun-10 05:50N 29°53' W 092°26'2 4.5
2018-Jun-10 05:30N 29°53' W 092°25'2 4.3
2018-Jun-10 05:00N 29°52' W 092°23'2 4.1
2018-Jun-10 04:31N 29°51' W 092°21'2 3.1
2018-Jun-10 04:00N 29°50' W 092°19'2 3.7
2018-Jun-10 03:30N 29°49' W 092°17'2 4.3
2018-Jun-10 03:00N 29°48' W 092°15'2 4.9
2018-Jun-10 02:30N 29°47' W 092°13'1 1.3
2018-Jun-10 02:00N 29°47' W 092°12'1 2.2
2018-Jun-10 01:30N 29°47' W 092°11'0 0.0
2018-Jun-10 00:59N 29°47' W 092°11'0 0.0
2018-Jun-10 00:29N 29°47' W 092°11'0 0.0
2018-Jun-10 00:00N 29°47' W 092°11'0 0.2
2018-Jun-09 23:31N 29°47' W 092°11'2 4.3
2018-Jun-09 23:01N 29°47' W 092°08'3 5.0
2018-Jun-09 22:30N 29°48' W 092°06'2 4.7
2018-Jun-09 22:00N 29°49' W 092°03'2 4.9
2018-Jun-09 21:31N 29°50' W 092°00'3 5.0
2018-Jun-09 21:00N 29°50' W 091°58'53 4.0
2018-Jun-09 07:45N 29°37' W 090°59'1 5.4
2018-Jun-09 07:30N 29°36' W 090°58'3 5.4
2018-Jun-09 06:59N 29°34' W 090°56'3 5.5
2018-Jun-09 06:26N 29°32' W 090°53'2 4.8
2018-Jun-09 06:00N 29°32' W 090°51'2 5.0
2018-Jun-09 05:30N 29°32' W 090°48'2 3.5
2018-Jun-09 05:01N 29°32' W 090°46'2 4.3
2018-Jun-09 04:30N 29°34' W 090°44'2 3.1
2018-Jun-09 04:01N 29°35' W 090°43'2 3.6
2018-Jun-09 03:31N 29°37' W 090°42'2 3.4
2018-Jun-09 03:00N 29°36' W 090°41'2 4.7
2018-Jun-09 02:30N 29°35' W 090°38'2 4.3
2018-Jun-09 02:00N 29°35' W 090°36'2 4.6
2018-Jun-09 01:30N 29°34' W 090°33'2 4.8
2018-Jun-09 01:01N 29°34' W 090°30'  
Track history (hours):
 
Tides and Currents Weather Stations Pressure Air Temp Water Temp Dewpoint Dewpoint Depression Visibility Wind Speed Wind Dir Waves Ship Positions

MiSS Sarah

Owner: Higman Barge Lines, Inc, Orange, TX. More information available from US FCC via Universal Licensing System and Coast Guard Vessel Documentation Center.

Last reported at 2018-Jun-15 05:49 UTC. Time now 2018-Jun-19 20:00 UTC.
Position N 29°46' W 095°06'.

Length 22 m; draft 2.7 m.

Type: . MMSI: 367419040.

Date/timePositionNaut miles runAvg speedWind from/ knotsBaromVisibWave heightAir tempDewpointWater temp
2018-Jun-15 05:49N 29°46' W 095°06'0 0.0
2018-Jun-15 05:14N 29°46' W 095°06'0 0.0
2018-Jun-15 05:00N 29°46' W 095°06'2 0.1
2018-Jun-14 08:13N 29°45' W 095°07'1 2.3
2018-Jun-14 07:50N 29°45' W 095°06'3 5.4
2018-Jun-14 07:22N 29°47' W 095°04'0 0.0
2018-Jun-14 06:59N 29°47' W 095°04'0 0.0
2018-Jun-14 06:30N 29°47' W 095°04'2 0.9
2018-Jun-14 03:53N 29°45' W 095°06'2 5.6
2018-Jun-14 03:27N 29°44' W 095°08'0 0.0
2018-Jun-14 02:58N 29°44' W 095°08'0 0.1
2018-Jun-14 01:57N 29°44' W 095°08'0 0.0
2018-Jun-14 01:27N 29°44' W 095°08'0 0.0
2018-Jun-14 00:49N 29°44' W 095°08'0 0.0
2018-Jun-13 06:26N 29°44' W 095°08'0 0.0
2018-Jun-13 05:40N 29°44' W 095°08'0 0.0
2018-Jun-13 05:29N 29°44' W 095°08'0 0.1
2018-Jun-13 04:53N 29°44' W 095°08'0 0.1
2018-Jun-13 04:30N 29°44' W 095°08'0 0.0
2018-Jun-13 03:59N 29°44' W 095°08'0 0.0
2018-Jun-13 03:28N 29°44' W 095°08'0 0.0
2018-Jun-13 02:42N 29°44' W 095°08'0 0.0
2018-Jun-13 02:19N 29°44' W 095°08'0 0.0
2018-Jun-13 01:54N 29°44' W 095°08'0 0.0
2018-Jun-12 11:17N 29°44' W 095°08'0 0.9
2018-Jun-12 10:49N 29°44' W 095°08'7 2.8
2018-Jun-12 08:28N 29°42' W 095°01'4 6.8
2018-Jun-12 07:57N 29°39' W 094°58'3 7.2
2018-Jun-12 07:30N 29°36' W 094°57'25 3.9
2018-Jun-12 01:03N 29°32' W 094°29'0 0.4
2018-Jun-12 01:00N 29°32' W 094°29'0 0.0
2018-Jun-12 00:26N 29°32' W 094°29'0 0.2
2018-Jun-11 23:58N 29°32' W 094°29'1 2.0
2018-Jun-11 23:19N 29°33' W 094°28'2 4.7
2018-Jun-11 22:56N 29°34' W 094°26'2 3.9
2018-Jun-11 22:27N 29°35' W 094°25'2 4.2
2018-Jun-11 21:58N 29°36' W 094°23'1 1.6
2018-Jun-11 21:29N 29°36' W 094°22'2 4.5
2018-Jun-11 21:00N 29°37' W 094°20'2 4.6
2018-Jun-11 20:31N 29°38' W 094°17'2 4.7
2018-Jun-11 20:00N 29°40' W 094°15'2 4.7
2018-Jun-11 19:31N 29°41' W 094°13'2 4.5
2018-Jun-11 19:00N 29°41' W 094°10'2 4.5
2018-Jun-11 18:30N 29°42' W 094°08'2 4.6
2018-Jun-11 18:00N 29°44' W 094°06'2 4.7
2018-Jun-11 17:30N 29°45' W 094°04'2 4.7
2018-Jun-11 17:01N 29°47' W 094°02'2 4.7
2018-Jun-11 16:30N 29°49' W 093°60'1 2.7
2018-Jun-11 16:00N 29°49' W 093°58'2 4.7
2018-Jun-11 15:30N 29°51' W 093°57'3 5.6
2018-Jun-11 15:01N 29°53' W 093°55'3 6.0
2018-Jun-11 14:31N 29°56' W 093°53'1 2.9
2018-Jun-11 14:01N 29°57' W 093°52'2 3.8
2018-Jun-11 13:30N 29°58' W 093°51'2 3.0
2018-Jun-11 13:01N 29°59' W 093°49'3 6.0
2018-Jun-11 12:29N 30°01' W 093°46'3 5.3
2018-Jun-11 12:00N 30°03' W 093°44'2 4.9
2018-Jun-11 11:30N 30°04' W 093°41'2 5.0
2018-Jun-11 11:01N 30°04' W 093°39'2 4.6
2018-Jun-11 10:30N 30°04' W 093°36'2 4.7
2018-Jun-11 10:00N 30°04' W 093°33'2 4.6
2018-Jun-11 09:30N 30°04' W 093°30'2 4.1
2018-Jun-11 09:01N 30°04' W 093°28'3 5.0
2018-Jun-11 08:30N 30°04' W 093°25'2 5.0
2018-Jun-11 08:00N 30°04' W 093°22'2 3.2
2018-Jun-11 07:30N 30°04' W 093°21'1 2.9
2018-Jun-11 07:00N 30°05' W 093°20'1 2.7
2018-Jun-11 06:31N 30°06' W 093°18'1 1.3
2018-Jun-11 06:00N 30°05' W 093°17'1 1.5
2018-Jun-11 05:30N 30°05' W 093°17'0 0.5
2018-Jun-11 05:00N 30°05' W 093°17'0 0.0
2018-Jun-11 04:30N 30°05' W 093°17'0 0.0
2018-Jun-11 04:00N 30°05' W 093°17'0 0.0
2018-Jun-11 03:30N 30°05' W 093°17'0 0.0
2018-Jun-11 03:00N 30°05' W 093°17'0 0.0
2018-Jun-11 02:29N 30°05' W 093°17'0 0.0
2018-Jun-11 02:00N 30°05' W 093°17'0 0.5
2018-Jun-11 01:30N 30°04' W 093°16'1 1.2
2018-Jun-11 01:00N 30°04' W 093°16'1 1.6
2018-Jun-11 00:30N 30°03' W 093°16'0 0.5
2018-Jun-11 00:00N 30°03' W 093°16'1 2.1
2018-Jun-10 23:30N 30°02' W 093°15'1 1.6
2018-Jun-10 23:00N 30°02' W 093°14'0 0.0
2018-Jun-10 22:30N 30°02' W 093°14'0 0.0
2018-Jun-10 22:01N 30°02' W 093°14'0 0.0
2018-Jun-10 21:30N 30°02' W 093°14'0 0.0
2018-Jun-10 21:01N 30°02' W 093°14'0 0.0
2018-Jun-10 20:31N 30°02' W 093°14'0 0.1
2018-Jun-10 20:00N 30°02' W 093°14'0 0.1
2018-Jun-10 19:30N 30°02' W 093°14'0 0.0
2018-Jun-10 19:00N 30°02' W 093°14'0 0.0
2018-Jun-10 18:26N 30°02' W 093°14'0 0.0
2018-Jun-10 18:00N 30°02' W 093°14'0 0.1
2018-Jun-10 17:30N 30°02' W 093°14'1 1.6
2018-Jun-10 17:00N 30°01' W 093°14'2 3.7
2018-Jun-10 16:30N 29°59' W 093°13'1 1.3
2018-Jun-10 16:01N 29°59' W 093°12'2 3.3
2018-Jun-10 15:30N 29°58' W 093°11'2 4.2
2018-Jun-10 14:59N 29°56' W 093°09'2 3.8
2018-Jun-10 14:30N 29°56' W 093°07'35 4.1
2018-Jun-10 05:50N 29°53' W 092°26'2 4.5
2018-Jun-10 05:30N 29°53' W 092°25'2 4.3
2018-Jun-10 05:00N 29°52' W 092°23'2 4.1
2018-Jun-10 04:31N 29°51' W 092°21'2 3.1
2018-Jun-10 04:00N 29°50' W 092°19'2 3.7
2018-Jun-10 03:30N 29°49' W 092°17'2 4.3
2018-Jun-10 03:00N 29°48' W 092°15'2 4.9
2018-Jun-10 02:30N 29°47' W 092°13'1 1.3
2018-Jun-10 02:00N 29°47' W 092°12'1 2.2
2018-Jun-10 01:30N 29°47' W 092°11'0 0.0
2018-Jun-10 00:59N 29°47' W 092°11'0 0.0
2018-Jun-10 00:29N 29°47' W 092°11'0 0.0
2018-Jun-10 00:00N 29°47' W 092°11'0 0.2
2018-Jun-09 23:31N 29°47' W 092°11'2 4.3
2018-Jun-09 23:01N 29°47' W 092°08'3 5.0
2018-Jun-09 22:30N 29°48' W 092°06'2 4.7
2018-Jun-09 22:00N 29°49' W 092°03'2 4.9
2018-Jun-09 21:31N 29°50' W 092°00'3 5.0
2018-Jun-09 21:00N 29°50' W 091°58'53 4.0
2018-Jun-09 07:45N 29°37' W 090°59'1 5.4
2018-Jun-09 07:30N 29°36' W 090°58'3 5.4
2018-Jun-09 06:59N 29°34' W 090°56'3 5.5
2018-Jun-09 06:26N 29°32' W 090°53'2 4.8
2018-Jun-09 06:00N 29°32' W 090°51'2 5.0
2018-Jun-09 05:30N 29°32' W 090°48'2 3.5
2018-Jun-09 05:01N 29°32' W 090°46'2 4.3
2018-Jun-09 04:30N 29°34' W 090°44'2 3.1
2018-Jun-09 04:01N 29°35' W 090°43'2 3.6
2018-Jun-09 03:31N 29°37' W 090°42'2 3.4
2018-Jun-09 03:00N 29°36' W 090°41'2 4.7
2018-Jun-09 02:30N 29°35' W 090°38'2 4.3
2018-Jun-09 02:00N 29°35' W 090°36'2 4.6
2018-Jun-09 01:30N 29°34' W 090°33'2 4.8
2018-Jun-09 01:01N 29°34' W 090°30'  

Dump ship's entire track history